sensor_id;sensor_type;location;lat;lon;timestamp;P1;durP1;ratioP1;P2;durP2;ratioP2
16965;SDS011;8599;47.852;12.070;2023-08-24T00:00:29;7.88;;;5.97;;
16965;SDS011;8599;47.852;12.070;2023-08-24T00:02:57;13.05;;;6.57;;
16965;SDS011;8599;47.852;12.070;2023-08-24T00:05:24;11.30;;;6.80;;
16965;SDS011;8599;47.852;12.070;2023-08-24T00:07:51;7.50;;;6.00;;
16965;SDS011;8599;47.852;12.070;2023-08-24T00:10:18;8.45;;;6.75;;
16965;SDS011;8599;47.852;12.070;2023-08-24T00:12:44;13.27;;;6.68;;
16965;SDS011;8599;47.852;12.070;2023-08-24T00:15:13;11.95;;;7.20;;
16965;SDS011;8599;47.852;12.070;2023-08-24T00:17:39;12.10;;;6.45;;
16965;SDS011;8599;47.852;12.070;2023-08-24T00:20:06;8.57;;;5.88;;
16965;SDS011;8599;47.852;12.070;2023-08-24T00:22:36;10.70;;;6.47;;
16965;SDS011;8599;47.852;12.070;2023-08-24T00:25:03;9.77;;;6.47;;
16965;SDS011;8599;47.852;12.070;2023-08-24T00:27:31;10.85;;;6.82;;
16965;SDS011;8599;47.852;12.070;2023-08-24T00:29:58;11.40;;;5.93;;
16965;SDS011;8599;47.852;12.070;2023-08-24T00:32:26;8.95;;;6.72;;
16965;SDS011;8599;47.852;12.070;2023-08-24T00:34:53;9.85;;;7.18;;
16965;SDS011;8599;47.852;12.070;2023-08-24T00:37:20;8.63;;;6.43;;
16965;SDS011;8599;47.852;12.070;2023-08-24T00:39:47;7.43;;;6.28;;
16965;SDS011;8599;47.852;12.070;2023-08-24T00:42:13;8.68;;;6.65;;
16965;SDS011;8599;47.852;12.070;2023-08-24T00:44:40;8.05;;;6.60;;
16965;SDS011;8599;47.852;12.070;2023-08-24T00:47:08;11.60;;;7.00;;
16965;SDS011;8599;47.852;12.070;2023-08-24T00:49:37;8.20;;;6.68;;
16965;SDS011;8599;47.852;12.070;2023-08-24T00:52:04;8.60;;;6.50;;
16965;SDS011;8599;47.852;12.070;2023-08-24T00:54:31;9.30;;;6.40;;
16965;SDS011;8599;47.852;12.070;2023-08-24T00:56:58;8.82;;;6.57;;
16965;SDS011;8599;47.852;12.070;2023-08-24T00:59:25;8.65;;;6.50;;
16965;SDS011;8599;47.852;12.070;2023-08-24T01:01:52;8.40;;;6.22;;
16965;SDS011;8599;47.852;12.070;2023-08-24T01:04:19;11.35;;;6.28;;
16965;SDS011;8599;47.852;12.070;2023-08-24T01:06:47;8.38;;;6.30;;
16965;SDS011;8599;47.852;12.070;2023-08-24T01:09:14;9.85;;;6.82;;
16965;SDS011;8599;47.852;12.070;2023-08-24T01:11:43;8.93;;;6.50;;
16965;SDS011;8599;47.852;12.070;2023-08-24T01:14:18;8.25;;;6.50;;
16965;SDS011;8599;47.852;12.070;2023-08-24T01:16:51;8.73;;;5.72;;
16965;SDS011;8599;47.852;12.070;2023-08-24T01:19:27;9.57;;;6.30;;
16965;SDS011;8599;47.852;12.070;2023-08-24T01:22:02;11.05;;;6.47;;
16965;SDS011;8599;47.852;12.070;2023-08-24T01:24:36;10.00;;;6.57;;
16965;SDS011;8599;47.852;12.070;2023-08-24T01:27:09;10.77;;;6.15;;
16965;SDS011;8599;47.852;12.070;2023-08-24T01:29:37;10.57;;;6.63;;
16965;SDS011;8599;47.852;12.070;2023-08-24T01:32:05;11.80;;;6.65;;
16965;SDS011;8599;47.852;12.070;2023-08-24T01:34:36;10.63;;;6.95;;
16965;SDS011;8599;47.852;12.070;2023-08-24T01:37:03;17.17;;;6.78;;
16965;SDS011;8599;47.852;12.070;2023-08-24T01:39:34;7.88;;;6.40;;
16965;SDS011;8599;47.852;12.070;2023-08-24T01:42:05;9.02;;;6.15;;
16965;SDS011;8599;47.852;12.070;2023-08-24T01:44:41;7.53;;;6.03;;
16965;SDS011;8599;47.852;12.070;2023-08-24T01:47:12;11.45;;;6.38;;
16965;SDS011;8599;47.852;12.070;2023-08-24T01:49:39;8.95;;;6.18;;
16965;SDS011;8599;47.852;12.070;2023-08-24T01:52:07;7.45;;;5.95;;
16965;SDS011;8599;47.852;12.070;2023-08-24T01:54:35;8.88;;;6.30;;
16965;SDS011;8599;47.852;12.070;2023-08-24T01:57:04;7.88;;;6.55;;
16965;SDS011;8599;47.852;12.070;2023-08-24T01:59:32;9.20;;;6.07;;
16965;SDS011;8599;47.852;12.070;2023-08-24T02:01:59;9.00;;;6.30;;
16965;SDS011;8599;47.852;12.070;2023-08-24T02:04:25;10.57;;;6.20;;
16965;SDS011;8599;47.852;12.070;2023-08-24T02:06:52;11.30;;;6.20;;
16965;SDS011;8599;47.852;12.070;2023-08-24T02:09:19;7.63;;;6.25;;
16965;SDS011;8599;47.852;12.070;2023-08-24T02:11:46;11.07;;;5.85;;
16965;SDS011;8599;47.852;12.070;2023-08-24T02:14:13;7.03;;;5.82;;
16965;SDS011;8599;47.852;12.070;2023-08-24T02:16:41;8.93;;;6.18;;
16965;SDS011;8599;47.852;12.070;2023-08-24T02:19:08;8.40;;;5.85;;
16965;SDS011;8599;47.852;12.070;2023-08-24T02:21:35;9.57;;;7.30;;
16965;SDS011;8599;47.852;12.070;2023-08-24T02:24:02;7.55;;;6.07;;
16965;SDS011;8599;47.852;12.070;2023-08-24T02:26:29;8.55;;;5.95;;
16965;SDS011;8599;47.852;12.070;2023-08-24T02:28:56;8.93;;;5.38;;
16965;SDS011;8599;47.852;12.070;2023-08-24T02:31:23;10.15;;;6.22;;
16965;SDS011;8599;47.852;12.070;2023-08-24T02:33:51;8.35;;;6.43;;
16965;SDS011;8599;47.852;12.070;2023-08-24T02:36:18;9.13;;;6.20;;
16965;SDS011;8599;47.852;12.070;2023-08-24T02:38:45;8.13;;;6.25;;
16965;SDS011;8599;47.852;12.070;2023-08-24T02:41:12;12.68;;;6.75;;
16965;SDS011;8599;47.852;12.070;2023-08-24T02:43:39;8.93;;;5.97;;
16965;SDS011;8599;47.852;12.070;2023-08-24T02:46:07;8.50;;;6.22;;
16965;SDS011;8599;47.852;12.070;2023-08-24T02:48:34;9.43;;;6.35;;
16965;SDS011;8599;47.852;12.070;2023-08-24T02:51:04;8.38;;;6.22;;
16965;SDS011;8599;47.852;12.070;2023-08-24T02:53:31;8.73;;;5.82;;
16965;SDS011;8599;47.852;12.070;2023-08-24T02:55:58;9.93;;;6.57;;
16965;SDS011;8599;47.852;12.070;2023-08-24T02:58:25;7.85;;;6.10;;
16965;SDS011;8599;47.852;12.070;2023-08-24T03:00:52;8.15;;;5.80;;
16965;SDS011;8599;47.852;12.070;2023-08-24T03:03:18;13.18;;;6.13;;
16965;SDS011;8599;47.852;12.070;2023-08-24T03:05:52;10.02;;;6.05;;
16965;SDS011;8599;47.852;12.070;2023-08-24T03:08:21;14.35;;;6.30;;
16965;SDS011;8599;47.852;12.070;2023-08-24T03:10:48;11.93;;;6.38;;
16965;SDS011;8599;47.852;12.070;2023-08-24T03:13:15;20.05;;;7.10;;
16965;SDS011;8599;47.852;12.070;2023-08-24T03:15:42;12.25;;;6.55;;
16965;SDS011;8599;47.852;12.070;2023-08-24T03:18:10;11.00;;;6.88;;
16965;SDS011;8599;47.852;12.070;2023-08-24T03:20:38;12.10;;;6.18;;
16965;SDS011;8599;47.852;12.070;2023-08-24T03:23:05;10.50;;;6.40;;
16965;SDS011;8599;47.852;12.070;2023-08-24T03:25:37;10.68;;;6.45;;
16965;SDS011;8599;47.852;12.070;2023-08-24T03:28:05;8.50;;;6.32;;
16965;SDS011;8599;47.852;12.070;2023-08-24T03:30:33;7.28;;;6.10;;
16965;SDS011;8599;47.852;12.070;2023-08-24T03:33:00;10.07;;;6.80;;
16965;SDS011;8599;47.852;12.070;2023-08-24T03:35:28;10.13;;;6.55;;
16965;SDS011;8599;47.852;12.070;2023-08-24T03:37:55;8.60;;;6.20;;
16965;SDS011;8599;47.852;12.070;2023-08-24T03:40:22;8.82;;;6.70;;
16965;SDS011;8599;47.852;12.070;2023-08-24T03:42:50;11.85;;;6.53;;
16965;SDS011;8599;47.852;12.070;2023-08-24T03:45:18;6.82;;;6.10;;
16965;SDS011;8599;47.852;12.070;2023-08-24T03:47:45;12.55;;;6.75;;
16965;SDS011;8599;47.852;12.070;2023-08-24T03:50:11;9.60;;;6.50;;
16965;SDS011;8599;47.852;12.070;2023-08-24T03:52:38;8.15;;;5.97;;
16965;SDS011;8599;47.852;12.070;2023-08-24T03:55:05;10.55;;;6.93;;
16965;SDS011;8599;47.852;12.070;2023-08-24T03:57:33;7.68;;;6.68;;
16965;SDS011;8599;47.852;12.070;2023-08-24T04:00:01;10.23;;;7.13;;
16965;SDS011;8599;47.852;12.070;2023-08-24T04:02:31;13.25;;;6.90;;
16965;SDS011;8599;47.852;12.070;2023-08-24T04:04:57;11.43;;;6.57;;
16965;SDS011;8599;47.852;12.070;2023-08-24T04:07:24;14.25;;;7.15;;
16965;SDS011;8599;47.852;12.070;2023-08-24T04:09:51;14.48;;;6.53;;
16965;SDS011;8599;47.852;12.070;2023-08-24T04:12:18;10.05;;;7.05;;
16965;SDS011;8599;47.852;12.070;2023-08-24T04:14:44;15.15;;;7.72;;
16965;SDS011;8599;47.852;12.070;2023-08-24T04:17:13;10.23;;;6.85;;
16965;SDS011;8599;47.852;12.070;2023-08-24T04:19:39;9.07;;;6.50;;
16965;SDS011;8599;47.852;12.070;2023-08-24T04:22:06;7.63;;;6.45;;
16965;SDS011;8599;47.852;12.070;2023-08-24T04:24:33;11.40;;;6.18;;
16965;SDS011;8599;47.852;12.070;2023-08-24T04:27:00;8.48;;;5.97;;
16965;SDS011;8599;47.852;12.070;2023-08-24T04:29:26;14.30;;;6.68;;
16965;SDS011;8599;47.852;12.070;2023-08-24T04:31:53;7.80;;;6.55;;
16965;SDS011;8599;47.852;12.070;2023-08-24T04:34:21;12.43;;;7.38;;
16965;SDS011;8599;47.852;12.070;2023-08-24T04:36:48;8.85;;;6.55;;
16965;SDS011;8599;47.852;12.070;2023-08-24T04:39:15;14.02;;;7.00;;
16965;SDS011;8599;47.852;12.070;2023-08-24T04:41:43;9.68;;;7.75;;
16965;SDS011;8599;47.852;12.070;2023-08-24T04:44:10;10.82;;;6.85;;
16965;SDS011;8599;47.852;12.070;2023-08-24T04:46:37;10.32;;;7.10;;
16965;SDS011;8599;47.852;12.070;2023-08-24T04:49:04;8.55;;;6.50;;
16965;SDS011;8599;47.852;12.070;2023-08-24T04:51:32;11.10;;;7.00;;
16965;SDS011;8599;47.852;12.070;2023-08-24T04:53:59;10.77;;;7.63;;
16965;SDS011;8599;47.852;12.070;2023-08-24T04:56:25;12.52;;;7.28;;
16965;SDS011;8599;47.852;12.070;2023-08-24T04:58:53;10.65;;;7.18;;
16965;SDS011;8599;47.852;12.070;2023-08-24T05:01:21;10.70;;;6.88;;
16965;SDS011;8599;47.852;12.070;2023-08-24T05:03:50;12.93;;;7.05;;
16965;SDS011;8599;47.852;12.070;2023-08-24T05:06:17;10.65;;;7.07;;
16965;SDS011;8599;47.852;12.070;2023-08-24T05:08:45;9.18;;;6.20;;
16965;SDS011;8599;47.852;12.070;2023-08-24T05:11:12;8.95;;;6.55;;
16965;SDS011;8599;47.852;12.070;2023-08-24T05:13:39;12.32;;;7.63;;
16965;SDS011;8599;47.852;12.070;2023-08-24T05:16:06;10.70;;;6.88;;
16965;SDS011;8599;47.852;12.070;2023-08-24T05:18:33;12.07;;;7.32;;
16965;SDS011;8599;47.852;12.070;2023-08-24T05:21:01;9.93;;;6.57;;
16965;SDS011;8599;47.852;12.070;2023-08-24T05:23:28;13.32;;;6.80;;
16965;SDS011;8599;47.852;12.070;2023-08-24T05:25:57;9.75;;;6.97;;
16965;SDS011;8599;47.852;12.070;2023-08-24T05:28:25;16.67;;;7.15;;
16965;SDS011;8599;47.852;12.070;2023-08-24T05:30:52;12.23;;;6.93;;
16965;SDS011;8599;47.852;12.070;2023-08-24T05:33:19;8.60;;;7.20;;
16965;SDS011;8599;47.852;12.070;2023-08-24T05:35:47;9.73;;;7.05;;
16965;SDS011;8599;47.852;12.070;2023-08-24T05:38:14;11.73;;;7.30;;
16965;SDS011;8599;47.852;12.070;2023-08-24T05:40:41;10.10;;;7.03;;
16965;SDS011;8599;47.852;12.070;2023-08-24T05:43:10;10.70;;;7.43;;
16965;SDS011;8599;47.852;12.070;2023-08-24T05:45:36;11.35;;;7.10;;
16965;SDS011;8599;47.852;12.070;2023-08-24T05:48:05;11.55;;;6.80;;
16965;SDS011;8599;47.852;12.070;2023-08-24T05:50:32;10.55;;;7.45;;
16965;SDS011;8599;47.852;12.070;2023-08-24T05:52:59;9.93;;;7.13;;
16965;SDS011;8599;47.852;12.070;2023-08-24T05:55:26;13.63;;;6.97;;
16965;SDS011;8599;47.852;12.070;2023-08-24T05:57:52;13.38;;;7.95;;
16965;SDS011;8599;47.852;12.070;2023-08-24T06:00:21;11.13;;;7.05;;
16965;SDS011;8599;47.852;12.070;2023-08-24T06:02:48;9.95;;;7.30;;
16965;SDS011;8599;47.852;12.070;2023-08-24T06:05:15;9.82;;;6.63;;
16965;SDS011;8599;47.852;12.070;2023-08-24T06:07:43;16.77;;;8.57;;
16965;SDS011;8599;47.852;12.070;2023-08-24T06:10:10;13.70;;;7.07;;
16965;SDS011;8599;47.852;12.070;2023-08-24T06:12:37;8.93;;;7.47;;
16965;SDS011;8599;47.852;12.070;2023-08-24T06:15:05;10.75;;;7.32;;
16965;SDS011;8599;47.852;12.070;2023-08-24T06:17:36;12.30;;;8.35;;
16965;SDS011;8599;47.852;12.070;2023-08-24T06:20:02;11.07;;;7.45;;
16965;SDS011;8599;47.852;12.070;2023-08-24T06:22:30;13.23;;;7.53;;
16965;SDS011;8599;47.852;12.070;2023-08-24T06:24:57;11.82;;;7.18;;
16965;SDS011;8599;47.852;12.070;2023-08-24T06:27:25;13.07;;;7.47;;
16965;SDS011;8599;47.852;12.070;2023-08-24T06:29:52;11.43;;;7.93;;
16965;SDS011;8599;47.852;12.070;2023-08-24T06:32:18;10.15;;;7.40;;
16965;SDS011;8599;47.852;12.070;2023-08-24T06:34:47;9.57;;;6.95;;
16965;SDS011;8599;47.852;12.070;2023-08-24T06:37:14;11.90;;;7.50;;
16965;SDS011;8599;47.852;12.070;2023-08-24T06:39:41;9.82;;;7.47;;
16965;SDS011;8599;47.852;12.070;2023-08-24T06:42:08;8.95;;;7.25;;
16965;SDS011;8599;47.852;12.070;2023-08-24T06:44:35;13.55;;;7.40;;
16965;SDS011;8599;47.852;12.070;2023-08-24T06:47:02;12.93;;;7.25;;
16965;SDS011;8599;47.852;12.070;2023-08-24T06:49:29;14.18;;;7.63;;
16965;SDS011;8599;47.852;12.070;2023-08-24T06:51:57;10.05;;;7.68;;
16965;SDS011;8599;47.852;12.070;2023-08-24T06:54:24;18.77;;;8.05;;
16965;SDS011;8599;47.852;12.070;2023-08-24T06:56:51;13.75;;;8.52;;
16965;SDS011;8599;47.852;12.070;2023-08-24T06:59:18;13.50;;;7.90;;
16965;SDS011;8599;47.852;12.070;2023-08-24T07:01:44;15.93;;;8.10;;
16965;SDS011;8599;47.852;12.070;2023-08-24T07:04:12;12.10;;;8.63;;
16965;SDS011;8599;47.852;12.070;2023-08-24T07:06:39;9.65;;;7.43;;
16965;SDS011;8599;47.852;12.070;2023-08-24T07:09:09;14.68;;;8.40;;
16965;SDS011;8599;47.852;12.070;2023-08-24T07:11:35;13.38;;;7.55;;
16965;SDS011;8599;47.852;12.070;2023-08-24T07:14:02;11.93;;;7.70;;
16965;SDS011;8599;47.852;12.070;2023-08-24T07:16:29;12.15;;;8.35;;
16965;SDS011;8599;47.852;12.070;2023-08-24T07:18:56;17.27;;;8.13;;
16965;SDS011;8599;47.852;12.070;2023-08-24T07:21:23;12.63;;;7.68;;
16965;SDS011;8599;47.852;12.070;2023-08-24T07:23:50;8.85;;;6.95;;
16965;SDS011;8599;47.852;12.070;2023-08-24T07:26:19;11.23;;;6.78;;
16965;SDS011;8599;47.852;12.070;2023-08-24T07:28:45;12.15;;;7.53;;
16965;SDS011;8599;47.852;12.070;2023-08-24T07:31:12;11.52;;;8.38;;
16965;SDS011;8599;47.852;12.070;2023-08-24T07:33:39;15.35;;;8.18;;
16965;SDS011;8599;47.852;12.070;2023-08-24T07:36:08;13.55;;;7.85;;
16965;SDS011;8599;47.852;12.070;2023-08-24T07:38:35;10.20;;;7.07;;
16965;SDS011;8599;47.852;12.070;2023-08-24T07:41:02;16.15;;;7.78;;
16965;SDS011;8599;47.852;12.070;2023-08-24T07:43:30;11.20;;;7.22;;
16965;SDS011;8599;47.852;12.070;2023-08-24T07:45:57;15.77;;;8.07;;
16965;SDS011;8599;47.852;12.070;2023-08-24T07:48:24;12.02;;;8.18;;
16965;SDS011;8599;47.852;12.070;2023-08-24T07:50:52;14.57;;;7.97;;
16965;SDS011;8599;47.852;12.070;2023-08-24T07:53:18;12.43;;;8.02;;
16965;SDS011;8599;47.852;12.070;2023-08-24T07:55:45;13.13;;;9.35;;
16965;SDS011;8599;47.852;12.070;2023-08-24T07:58:12;10.82;;;7.63;;
16965;SDS011;8599;47.852;12.070;2023-08-24T08:00:40;14.23;;;8.15;;
16965;SDS011;8599;47.852;12.070;2023-08-24T08:03:07;11.43;;;7.90;;
16965;SDS011;8599;47.852;12.070;2023-08-24T08:05:34;11.68;;;7.35;;
16965;SDS011;8599;47.852;12.070;2023-08-24T08:08:01;16.45;;;8.75;;
16965;SDS011;8599;47.852;12.070;2023-08-24T08:10:27;24.52;;;9.00;;
16965;SDS011;8599;47.852;12.070;2023-08-24T08:12:54;21.17;;;8.98;;
16965;SDS011;8599;47.852;12.070;2023-08-24T08:15:21;11.20;;;7.78;;
16965;SDS011;8599;47.852;12.070;2023-08-24T08:17:50;13.27;;;8.60;;
16965;SDS011;8599;47.852;12.070;2023-08-24T08:20:17;16.40;;;8.52;;
16965;SDS011;8599;47.852;12.070;2023-08-24T08:22:44;17.55;;;8.95;;
16965;SDS011;8599;47.852;12.070;2023-08-24T08:25:11;13.02;;;8.98;;
16965;SDS011;8599;47.852;12.070;2023-08-24T08:27:38;11.02;;;8.40;;
16965;SDS011;8599;47.852;12.070;2023-08-24T08:30:05;12.35;;;8.25;;
16965;SDS011;8599;47.852;12.070;2023-08-24T08:32:33;18.92;;;10.05;;
16965;SDS011;8599;47.852;12.070;2023-08-24T08:35:01;16.63;;;9.52;;
16965;SDS011;8599;47.852;12.070;2023-08-24T08:37:30;11.10;;;8.95;;
16965;SDS011;8599;47.852;12.070;2023-08-24T08:39:58;12.35;;;7.35;;
16965;SDS011;8599;47.852;12.070;2023-08-24T08:42:24;12.95;;;9.50;;
16965;SDS011;8599;47.852;12.070;2023-08-24T08:44:51;13.48;;;8.35;;
16965;SDS011;8599;47.852;12.070;2023-08-24T08:47:20;11.32;;;8.02;;
16965;SDS011;8599;47.852;12.070;2023-08-24T08:49:48;12.40;;;7.82;;
16965;SDS011;8599;47.852;12.070;2023-08-24T08:52:16;15.40;;;8.73;;
16965;SDS011;8599;47.852;12.070;2023-08-24T08:54:43;17.88;;;8.55;;
16965;SDS011;8599;47.852;12.070;2023-08-24T08:57:10;13.70;;;8.00;;
16965;SDS011;8599;47.852;12.070;2023-08-24T08:59:37;11.75;;;7.95;;
16965;SDS011;8599;47.852;12.070;2023-08-24T09:02:04;12.82;;;8.68;;
16965;SDS011;8599;47.852;12.070;2023-08-24T09:04:36;12.75;;;7.85;;
16965;SDS011;8599;47.852;12.070;2023-08-24T09:07:04;10.38;;;7.45;;
16965;SDS011;8599;47.852;12.070;2023-08-24T09:09:37;9.15;;;7.20;;
16965;SDS011;8599;47.852;12.070;2023-08-24T09:12:05;18.55;;;7.60;;
16965;SDS011;8599;47.852;12.070;2023-08-24T09:14:32;12.35;;;8.75;;
16965;SDS011;8599;47.852;12.070;2023-08-24T09:16:59;13.65;;;7.40;;
16965;SDS011;8599;47.852;12.070;2023-08-24T09:19:27;14.25;;;8.25;;
16965;SDS011;8599;47.852;12.070;2023-08-24T09:21:56;12.45;;;8.25;;
16965;SDS011;8599;47.852;12.070;2023-08-24T09:24:28;10.50;;;6.88;;
16965;SDS011;8599;47.852;12.070;2023-08-24T09:26:58;14.15;;;8.30;;
16965;SDS011;8599;47.852;12.070;2023-08-24T09:29:25;13.57;;;7.47;;
16965;SDS011;8599;47.852;12.070;2023-08-24T09:31:53;13.77;;;6.95;;
16965;SDS011;8599;47.852;12.070;2023-08-24T09:34:20;11.52;;;8.35;;
16965;SDS011;8599;47.852;12.070;2023-08-24T09:36:47;10.60;;;7.38;;
16965;SDS011;8599;47.852;12.070;2023-08-24T09:39:16;11.07;;;7.82;;
16965;SDS011;8599;47.852;12.070;2023-08-24T09:41:45;9.40;;;7.25;;
16965;SDS011;8599;47.852;12.070;2023-08-24T09:44:14;15.55;;;7.57;;
16965;SDS011;8599;47.852;12.070;2023-08-24T09:46:41;12.10;;;7.13;;
16965;SDS011;8599;47.852;12.070;2023-08-24T09:49:09;11.70;;;7.97;;
16965;SDS011;8599;47.852;12.070;2023-08-24T09:51:37;12.82;;;6.97;;
16965;SDS011;8599;47.852;12.070;2023-08-24T09:54:06;8.43;;;7.05;;
16965;SDS011;8599;47.852;12.070;2023-08-24T09:56:34;10.65;;;7.22;;
16965;SDS011;8599;47.852;12.070;2023-08-24T09:59:05;12.82;;;6.95;;
16965;SDS011;8599;47.852;12.070;2023-08-24T10:01:43;9.95;;;6.40;;
16965;SDS011;8599;47.852;12.070;2023-08-24T10:04:12;10.13;;;6.32;;
16965;SDS011;8599;47.852;12.070;2023-08-24T10:06:40;12.48;;;7.10;;
16965;SDS011;8599;47.852;12.070;2023-08-24T10:09:11;13.65;;;7.93;;
16965;SDS011;8599;47.852;12.070;2023-08-24T10:11:46;11.20;;;6.60;;
16965;SDS011;8599;47.852;12.070;2023-08-24T10:14:21;11.20;;;6.78;;
16965;SDS011;8599;47.852;12.070;2023-08-24T10:16:53;12.55;;;6.78;;
16965;SDS011;8599;47.852;12.070;2023-08-24T10:19:20;12.05;;;7.32;;
16965;SDS011;8599;47.852;12.070;2023-08-24T10:21:48;8.88;;;6.07;;
16965;SDS011;8599;47.852;12.070;2023-08-24T10:24:16;14.73;;;6.25;;
16965;SDS011;8599;47.852;12.070;2023-08-24T10:26:46;10.43;;;5.97;;
16965;SDS011;8599;47.852;12.070;2023-08-24T10:29:13;16.20;;;8.85;;
16965;SDS011;8599;47.852;12.070;2023-08-24T10:31:43;8.25;;;6.75;;
16965;SDS011;8599;47.852;12.070;2023-08-24T10:34:10;11.52;;;6.00;;
16965;SDS011;8599;47.852;12.070;2023-08-24T10:36:38;13.55;;;7.90;;
16965;SDS011;8599;47.852;12.070;2023-08-24T10:39:05;8.85;;;6.15;;
16965;SDS011;8599;47.852;12.070;2023-08-24T10:41:48;13.90;;;6.05;;
16965;SDS011;8599;47.852;12.070;2023-08-24T10:44:19;21.05;;;6.53;;
16965;SDS011;8599;47.852;12.070;2023-08-24T10:49:33;7.40;;;5.90;;
16965;SDS011;8599;47.852;12.070;2023-08-24T10:54:42;9.07;;;5.72;;
16965;SDS011;8599;47.852;12.070;2023-08-24T10:57:10;12.40;;;6.05;;
16965;SDS011;8599;47.852;12.070;2023-08-24T10:59:44;10.40;;;5.45;;
16965;SDS011;8599;47.852;12.070;2023-08-24T11:02:18;9.32;;;5.75;;
16965;SDS011;8599;47.852;12.070;2023-08-24T11:05:04;7.97;;;5.63;;
16965;SDS011;8599;47.852;12.070;2023-08-24T11:07:31;9.68;;;6.38;;
16965;SDS011;8599;47.852;12.070;2023-08-24T11:09:59;6.80;;;6.10;;
16965;SDS011;8599;47.852;12.070;2023-08-24T11:15:42;8.98;;;5.45;;
16965;SDS011;8599;47.852;12.070;2023-08-24T11:18:12;11.35;;;5.28;;
16965;SDS011;8599;47.852;12.070;2023-08-24T11:20:41;8.23;;;5.25;;
16965;SDS011;8599;47.852;12.070;2023-08-24T11:23:10;8.57;;;5.13;;
16965;SDS011;8599;47.852;12.070;2023-08-24T11:25:37;12.77;;;6.13;;
16965;SDS011;8599;47.852;12.070;2023-08-24T11:28:04;11.40;;;5.35;;
16965;SDS011;8599;47.852;12.070;2023-08-24T11:30:32;7.13;;;5.10;;
16965;SDS011;8599;47.852;12.070;2023-08-24T11:32:59;14.40;;;5.93;;
16965;SDS011;8599;47.852;12.070;2023-08-24T11:35:27;10.38;;;5.13;;
16965;SDS011;8599;47.852;12.070;2023-08-24T11:37:54;8.10;;;4.90;;
16965;SDS011;8599;47.852;12.070;2023-08-24T11:40:22;6.65;;;5.05;;
16965;SDS011;8599;47.852;12.070;2023-08-24T11:42:53;9.30;;;5.05;;
16965;SDS011;8599;47.852;12.070;2023-08-24T11:45:20;6.07;;;4.68;;
16965;SDS011;8599;47.852;12.070;2023-08-24T11:47:47;7.07;;;5.32;;
16965;SDS011;8599;47.852;12.070;2023-08-24T11:50:14;5.45;;;4.63;;
16965;SDS011;8599;47.852;12.070;2023-08-24T11:52:43;9.48;;;5.53;;
16965;SDS011;8599;47.852;12.070;2023-08-24T11:55:11;5.82;;;4.90;;
16965;SDS011;8599;47.852;12.070;2023-08-24T11:57:38;9.23;;;5.10;;
16965;SDS011;8599;47.852;12.070;2023-08-24T12:00:05;11.48;;;4.70;;
16965;SDS011;8599;47.852;12.070;2023-08-24T12:02:34;11.40;;;4.93;;
16965;SDS011;8599;47.852;12.070;2023-08-24T12:05:01;9.65;;;5.15;;
16965;SDS011;8599;47.852;12.070;2023-08-24T12:07:32;13.43;;;5.68;;
16965;SDS011;8599;47.852;12.070;2023-08-24T12:10:01;6.65;;;4.97;;
16965;SDS011;8599;47.852;12.070;2023-08-24T12:12:28;7.68;;;4.63;;
16965;SDS011;8599;47.852;12.070;2023-08-24T12:14:56;13.07;;;4.88;;
16965;SDS011;8599;47.852;12.070;2023-08-24T12:17:23;8.38;;;4.97;;
16965;SDS011;8599;47.852;12.070;2023-08-24T12:19:57;8.95;;;4.53;;
16965;SDS011;8599;47.852;12.070;2023-08-24T12:22:26;8.60;;;5.60;;
16965;SDS011;8599;47.852;12.070;2023-08-24T12:24:53;9.40;;;4.80;;
16965;SDS011;8599;47.852;12.070;2023-08-24T12:27:22;9.02;;;5.20;;
16965;SDS011;8599;47.852;12.070;2023-08-24T12:29:49;9.27;;;4.80;;
16965;SDS011;8599;47.852;12.070;2023-08-24T12:32:16;8.35;;;4.88;;
16965;SDS011;8599;47.852;12.070;2023-08-24T12:34:45;12.38;;;5.22;;
16965;SDS011;8599;47.852;12.070;2023-08-24T12:37:12;7.70;;;4.93;;
16965;SDS011;8599;47.852;12.070;2023-08-24T12:39:39;10.07;;;5.57;;
16965;SDS011;8599;47.852;12.070;2023-08-24T12:42:06;12.90;;;5.47;;
16965;SDS011;8599;47.852;12.070;2023-08-24T12:44:34;8.88;;;5.07;;
16965;SDS011;8599;47.852;12.070;2023-08-24T12:47:02;8.02;;;5.25;;
16965;SDS011;8599;47.852;12.070;2023-08-24T12:49:29;6.57;;;5.00;;
16965;SDS011;8599;47.852;12.070;2023-08-24T12:51:56;7.28;;;4.93;;
16965;SDS011;8599;47.852;12.070;2023-08-24T12:54:22;6.93;;;4.90;;
16965;SDS011;8599;47.852;12.070;2023-08-24T12:56:49;10.60;;;5.40;;
16965;SDS011;8599;47.852;12.070;2023-08-24T12:59:17;10.35;;;5.05;;
16965;SDS011;8599;47.852;12.070;2023-08-24T13:01:45;6.53;;;5.03;;
16965;SDS011;8599;47.852;12.070;2023-08-24T13:04:12;12.75;;;5.70;;
16965;SDS011;8599;47.852;12.070;2023-08-24T13:06:39;10.73;;;5.57;;
16965;SDS011;8599;47.852;12.070;2023-08-24T13:09:06;6.75;;;4.68;;
16965;SDS011;8599;47.852;12.070;2023-08-24T13:11:33;8.38;;;5.80;;
16965;SDS011;8599;47.852;12.070;2023-08-24T13:13:59;9.20;;;5.05;;
16965;SDS011;8599;47.852;12.070;2023-08-24T13:16:26;10.82;;;5.53;;
16965;SDS011;8599;47.852;12.070;2023-08-24T13:18:55;7.70;;;4.97;;
16965;SDS011;8599;47.852;12.070;2023-08-24T13:21:22;9.15;;;5.05;;
16965;SDS011;8599;47.852;12.070;2023-08-24T13:23:50;7.50;;;4.97;;
16965;SDS011;8599;47.852;12.070;2023-08-24T13:26:17;11.63;;;5.20;;
16965;SDS011;8599;47.852;12.070;2023-08-24T13:28:45;5.28;;;4.70;;
16965;SDS011;8599;47.852;12.070;2023-08-24T13:31:12;27.60;;;4.70;;
16965;SDS011;8599;47.852;12.070;2023-08-24T13:33:39;9.85;;;4.80;;
16965;SDS011;8599;47.852;12.070;2023-08-24T13:36:07;8.60;;;5.15;;
16965;SDS011;8599;47.852;12.070;2023-08-24T13:38:34;10.80;;;5.25;;
16965;SDS011;8599;47.852;12.070;2023-08-24T13:41:00;8.50;;;4.60;;
16965;SDS011;8599;47.852;12.070;2023-08-24T13:43:28;23.33;;;14.30;;
16965;SDS011;8599;47.852;12.070;2023-08-24T13:45:55;6.38;;;5.05;;
16965;SDS011;8599;47.852;12.070;2023-08-24T13:48:22;9.88;;;4.40;;
16965;SDS011;8599;47.852;12.070;2023-08-24T13:50:50;7.85;;;5.22;;
16965;SDS011;8599;47.852;12.070;2023-08-24T13:53:19;9.38;;;4.82;;
16965;SDS011;8599;47.852;12.070;2023-08-24T13:55:46;8.43;;;4.75;;
16965;SDS011;8599;47.852;12.070;2023-08-24T13:58:13;9.50;;;5.45;;
16965;SDS011;8599;47.852;12.070;2023-08-24T14:00:40;5.47;;;4.63;;
16965;SDS011;8599;47.852;12.070;2023-08-24T14:03:06;7.32;;;4.75;;
16965;SDS011;8599;47.852;12.070;2023-08-24T14:05:38;8.93;;;4.63;;
16965;SDS011;8599;47.852;12.070;2023-08-24T14:08:05;11.13;;;5.20;;
16965;SDS011;8599;47.852;12.070;2023-08-24T14:10:34;10.07;;;4.47;;
16965;SDS011;8599;47.852;12.070;2023-08-24T14:13:01;8.57;;;4.35;;
16965;SDS011;8599;47.852;12.070;2023-08-24T14:15:28;7.03;;;4.25;;
16965;SDS011;8599;47.852;12.070;2023-08-24T14:17:55;6.47;;;4.05;;
16965;SDS011;8599;47.852;12.070;2023-08-24T14:20:21;7.85;;;4.03;;
16965;SDS011;8599;47.852;12.070;2023-08-24T14:22:49;5.55;;;3.90;;
16965;SDS011;8599;47.852;12.070;2023-08-24T14:25:16;8.27;;;4.32;;
16965;SDS011;8599;47.852;12.070;2023-08-24T14:27:44;7.25;;;4.40;;
16965;SDS011;8599;47.852;12.070;2023-08-24T14:30:11;7.90;;;4.65;;
16965;SDS011;8599;47.852;12.070;2023-08-24T14:32:38;10.00;;;4.20;;
16965;SDS011;8599;47.852;12.070;2023-08-24T14:35:05;11.02;;;4.80;;
16965;SDS011;8599;47.852;12.070;2023-08-24T14:37:34;7.50;;;4.30;;
16965;SDS011;8599;47.852;12.070;2023-08-24T14:40:01;9.25;;;5.07;;
16965;SDS011;8599;47.852;12.070;2023-08-24T14:42:29;7.35;;;4.20;;
16965;SDS011;8599;47.852;12.070;2023-08-24T14:44:57;6.95;;;5.07;;
16965;SDS011;8599;47.852;12.070;2023-08-24T14:47:24;12.30;;;5.68;;
16965;SDS011;8599;47.852;12.070;2023-08-24T14:49:51;7.47;;;4.82;;
16965;SDS011;8599;47.852;12.070;2023-08-24T14:52:19;7.30;;;4.63;;